Fjordprinsessen — LJVE — position and weather

sailwx.info

Track history (hours):
 
Tides and Currents Weather Stations Pressure Air Temp Water Temp Dewpoint Dewpoint Depression Visibility Wind Speed Wind Dir Waves Ship Positions

Fjordprinsessen

Last reported at 2017-Feb-22 20:12 UTC. Time now 2017-Feb-22 22:07 UTC.
Position N 66°07' E 012°45'.

Length 30 m; draft 2.5 m.

Type: High speed craft. MMSI: 259604000.

Date/timePositionNaut miles runAvg speedWind from/ knotsBaromVisibWave heightAir tempDewpointWater temp
2017-Feb-22 20:12N 66°07' E 012°45'1420.8
2017-Feb-22 19:31N 66°21' E 012°52'1111.8
2017-Feb-22 18:33N 66°32' E 012°58'1311.2
2017-Feb-22 17:25N 66°43' E 013°14'1411.2
2017-Feb-22 16:11N 66°55' E 013°30'1523.7
2017-Feb-22 15:34N 67°06' E 013°56'1615.8
2017-Feb-22 14:33N 67°17' E 014°24'1 0.6
2017-Feb-22 13:33N 67°17' E 014°22'0 0.0
2017-Feb-22 12:33N 67°17' E 014°22'0 0.0
2017-Feb-22 11:33N 67°17' E 014°22'0 0.0
2017-Feb-22 10:33N 67°17' E 014°22'0 0.1
2017-Feb-22 09:33N 67°17' E 014°22'1111.1
2017-Feb-22 08:34N 67°27' E 014°35'10 0.7
2017-Feb-21 17:03N 67°37' E 014°42'1429.5
2017-Feb-21 16:34N 67°23' E 014°30'7 6.9
2017-Feb-21 15:33N 67°17' E 014°22'0 0.0
2017-Feb-21 14:33N 67°17' E 014°22'0 0.0
2017-Feb-21 13:33N 67°17' E 014°22'0 0.0
2017-Feb-21 12:33N 67°17' E 014°22'0 0.0
2017-Feb-21 11:34N 67°17' E 014°22'1312.9
2017-Feb-21 10:33N 67°08' E 013°58'3115.4
2017-Feb-21 08:34N 66°43' E 013°14'1212.2
2017-Feb-21 07:34N 66°32' E 012°58'2018.2
2017-Feb-21 06:26N 66°12' E 013°00'8 0.8
2017-Feb-20 20:25N 66°07' E 012°45'1416.9
2017-Feb-20 19:33N 66°21' E 012°55'1713.1
2017-Feb-20 18:16N 66°37' E 012°59'810.9
2017-Feb-20 17:34N 66°43' E 013°14'1413.0
2017-Feb-20 16:30N 66°55' E 013°30'2021.2
2017-Feb-20 15:33N 67°10' E 014°03'1010.2
2017-Feb-20 14:33N 67°17' E 014°22'0 0.0
2017-Feb-20 13:34N 67°17' E 014°22'0 0.0
2017-Feb-20 12:33N 67°17' E 014°22'0 0.0
2017-Feb-20 11:34N 67°17' E 014°22'0 0.0
2017-Feb-20 10:33N 67°17' E 014°22'0 0.0
2017-Feb-20 09:33N 67°17' E 014°22'0 0.0
2017-Feb-20 08:34N 67°17' E 014°22'1513.0
2017-Feb-20 07:24N 67°18' E 013°43'1315.1
2017-Feb-20 06:32N 67°23' E 014°15'2 2.4
2017-Feb-20 05:33N 67°24' E 014°09'1 0.1
2017-Feb-19 20:34N 67°25' E 014°06'10 9.9
2017-Feb-19 19:34N 67°17' E 014°22'1514.6
2017-Feb-19 18:33N 67°06' E 013°57'2315.4
2017-Feb-19 17:03N 66°48' E 013°20'2814.0
2017-Feb-19 15:03N 66°23' E 012°48'7 0.3
2017-Feb-18 19:32N 66°17' E 012°55'1514.9
2017-Feb-18 18:33N 66°32' E 012°58'2612.8
2017-Feb-18 16:29N 66°56' E 013°26'1919.9
2017-Feb-18 15:34N 67°07' E 014°03'1212.3
2017-Feb-18 14:34N 67°17' E 014°22'0 0.0
2017-Feb-18 13:33N 67°17' E 014°22'0 0.0
2017-Feb-18 12:34N 67°17' E 014°22'0 0.0
2017-Feb-18 11:34N 67°17' E 014°22'0 0.2
2017-Feb-18 10:34N 67°17' E 014°22'1312.9
2017-Feb-18 09:33N 67°24' E 013°54'1110.6
2017-Feb-18 08:34N 67°17' E 014°13'1111.3
2017-Feb-18 07:34N 67°07' E 013°57'1313.4
2017-Feb-18 06:33N 67°17' E 014°20'1 0.8
2017-Feb-18 05:32N 67°17' E 014°22'0 0.0
2017-Feb-18 04:32N 67°17' E 014°22'0 0.0
2017-Feb-18 03:32N 67°17' E 014°22'0 0.0
2017-Feb-18 02:32N 67°17' E 014°22'0 0.0
2017-Feb-18 01:32N 67°17' E 014°22'0 0.0
2017-Feb-18 00:31N 67°17' E 014°22'0 0.0
2017-Feb-17 23:31N 67°17' E 014°22'0 0.0
2017-Feb-17 22:31N 67°17' E 014°22'0 0.0
2017-Feb-17 21:31N 67°17' E 014°22'0 0.0
2017-Feb-17 20:31N 67°17' E 014°22'0 0.0
2017-Feb-17 19:31N 67°17' E 014°22'0 0.0
2017-Feb-17 18:31N 67°17' E 014°22'0 0.0
2017-Feb-17 17:31N 67°17' E 014°22'3 3.1
2017-Feb-17 16:34N 67°20' E 014°19'5 4.6
2017-Feb-17 15:33N 67°24' E 014°13'5 4.5
2017-Feb-17 14:33N 67°20' E 014°19'1413.7
2017-Feb-17 13:33N 67°18' E 013°43'1111.3
2017-Feb-17 12:33N 67°24' E 014°09'9 8.9
2017-Feb-17 11:33N 67°17' E 014°23'0 0.2
2017-Feb-17 10:33N 67°17' E 014°22'0 0.0
2017-Feb-17 09:33N 67°17' E 014°22'0 0.0
2017-Feb-17 08:33N 67°17' E 014°22'0 0.0
2017-Feb-17 07:33N 67°17' E 014°22'0 0.0
2017-Feb-17 06:33N 67°17' E 014°22'1212.4
2017-Feb-17 05:33N 67°08' E 014°02'1212.4
2017-Feb-17 04:33N 67°17' E 014°22'0 0.0
2017-Feb-17 03:32N 67°17' E 014°22'0 0.0
2017-Feb-17 02:32N 67°17' E 014°22'0 0.0
2017-Feb-17 01:32N 67°17' E 014°22'0 0.0
2017-Feb-17 00:32N 67°17' E 014°22'0 0.0
2017-Feb-16 23:32N 67°17' E 014°22'0 0.0
2017-Feb-16 22:32N 67°17' E 014°22'0 0.0
2017-Feb-16 21:32N 67°17' E 014°22'1111.4
2017-Feb-16 20:34N 67°12' E 013°56'5 5.3
2017-Feb-16 19:34N 67°08' E 014°02'1212.4
2017-Feb-16 18:34N 67°17' E 014°22'0 0.0
2017-Feb-16 17:33N 67°17' E 014°22'1 0.8
2017-Feb-16 16:34N 67°18' E 014°23'8 8.1
2017-Feb-16 15:33N 67°24' E 014°10'2 2.1
2017-Feb-16 14:34N 67°23' E 014°15'1010.2
2017-Feb-16 13:33N 67°20' E 013°50'9 9.5
2017-Feb-16 12:34N 67°24' E 014°12'8 8.1
2017-Feb-16 11:33N 67°17' E 014°22'7 6.8
2017-Feb-16 10:34N 67°14' E 014°06'6 5.7
2017-Feb-16 09:34N 67°09' E 014°02'1111.3
2017-Feb-16 08:33N 67°17' E 014°22'0 0.0
2017-Feb-16 07:33N 67°17' E 014°22'0 0.0
2017-Feb-16 06:33N 67°17' E 014°22'1212.4
2017-Feb-16 05:33N 67°07' E 014°02'1212.4
2017-Feb-16 04:33N 67°17' E 014°22'0 0.0
2017-Feb-16 03:32N 67°17' E 014°22'0 0.0
2017-Feb-16 02:32N 67°17' E 014°22'0 0.0
2017-Feb-16 01:32N 67°17' E 014°22'0 0.0
2017-Feb-16 00:32N 67°17' E 014°22'0 0.0
2017-Feb-15 23:32N 67°17' E 014°22'0 0.0
2017-Feb-15 22:32N 67°17' E 014°22'0 0.0
2017-Feb-15 21:32N 67°17' E 014°22'7 7.7
2017-Feb-15 20:34N 67°14' E 014°05'7 6.8
2017-Feb-15 19:34N 67°07' E 014°02'1212.4
2017-Feb-15 18:33N 67°17' E 014°22'0 0.0
2017-Feb-15 17:33N 67°17' E 014°22'1212.4
2017-Feb-15 16:33N 67°13' E 013°52'7 7.3
2017-Feb-15 15:33N 67°07' E 014°03'1212.3
2017-Feb-15 14:34N 67°17' E 014°22'0 0.0
2017-Feb-15 13:31N 67°17' E 014°22'0 0.0
2017-Feb-15 12:34N 67°17' E 014°22'0 0.0
2017-Feb-15 11:33N 67°17' E 014°22'0 0.0
2017-Feb-15 10:33N 67°17' E 014°22'0 0.0
2017-Feb-15 09:33N 67°17' E 014°22'0 0.0
2017-Feb-15 08:33N 67°17' E 014°22'0 0.0
2017-Feb-15 07:33N 67°17' E 014°22'0 0.0
2017-Feb-15 06:33N 67°17' E 014°22'1212.6
2017-Feb-15 05:33N 67°07' E 014°02'1212.5
2017-Feb-15 04:33N 67°17' E 014°22'0 0.0
2017-Feb-15 03:33N 67°17' E 014°22'0 0.0
2017-Feb-15 02:33N 67°17' E 014°22'0 0.0
2017-Feb-15 01:33N 67°17' E 014°22'0 0.0
2017-Feb-15 00:33N 67°17' E 014°22'0 0.0
2017-Feb-14 23:33N 67°17' E 014°22'0 0.0
2017-Feb-14 22:33N 67°17' E 014°22'0 0.0
2017-Feb-14 21:33N 67°17' E 014°22'0 0.0
2017-Feb-14 20:33N 67°17' E 014°22'0 0.0
2017-Feb-14 19:33N 67°17' E 014°22'0 0.0
2017-Feb-14 18:33N 67°17' E 014°22'1 0.6
2017-Feb-14 17:34N 67°17' E 014°24'1514.5
2017-Feb-14 16:31N 67°19' E 013°45'1111.6
2017-Feb-14 15:34N 67°24' E 014°10'9 8.7
2017-Feb-14 14:34N 67°17' E 014°23'0 0.4
2017-Feb-14 13:32N 67°17' E 014°22'0 0.0
2017-Feb-14 12:31N 67°17' E 014°22'0 0.0
2017-Feb-14 11:31N 67°17' E 014°22'0 0.0
2017-Feb-14 10:31N 67°17' E 014°22'0 0.0
2017-Feb-14 09:31N 67°17' E 014°22'2 2.5
2017-Feb-14 08:34N 67°19' E 014°20'1412.7
2017-Feb-14 07:28N 67°19' E 013°44'1314.0
2017-Feb-14 06:33N 67°23' E 014°15'1716.5
2017-Feb-14 05:33N 67°07' E 014°02'1212.4
2017-Feb-14 04:33N 67°17' E 014°22'0 0.0
2017-Feb-14 03:32N 67°17' E 014°22'0 0.0
2017-Feb-14 02:32N 67°17' E 014°22'0 0.0
2017-Feb-14 01:32N 67°17' E 014°22'0 0.0
2017-Feb-14 00:32N 67°17' E 014°22'0 0.0
2017-Feb-13 23:32N 67°17' E 014°22'0 0.0
2017-Feb-13 22:32N 67°17' E 014°22'0 0.0
2017-Feb-13 21:32N 67°17' E 014°22'0 0.0
2017-Feb-13 20:31N 67°17' E 014°22'0 0.0
2017-Feb-13 19:31N 67°17' E 014°22'0 0.0
2017-Feb-13 18:31N 67°17' E 014°22'0 0.0
2017-Feb-13 17:31N 67°17' E 014°22'1616.5
2017-Feb-13 16:33N 67°10' E 013°46'7 7.4
2017-Feb-13 15:34N 67°14' E 014°02'9 8.3
2017-Feb-13 14:31N 67°17' E 014°22'0 0.0
2017-Feb-13 13:33N 67°17' E 014°22'0 0.0
2017-Feb-13 12:32N 67°17' E 014°22'0 0.4
2017-Feb-13 11:33N 67°17' E 014°23'1515.0
2017-Feb-13 10:34N 67°11' E 013°49'6 5.8
2017-Feb-13 09:34N 67°11' E 014°03'9 9.2
2017-Feb-13 08:33N 67°17' E 014°22'0 0.0
2017-Feb-13 07:33N 67°17' E 014°22'0 0.0
2017-Feb-13 06:33N 67°17' E 014°22'1212.3
2017-Feb-13 05:34N 67°07' E 014°03'1212.2
2017-Feb-13 04:33N 67°17' E 014°22'0 0.3
2017-Feb-13 03:33N 67°17' E 014°22'0 0.0
2017-Feb-13 02:33N 67°17' E 014°22'0 0.0
2017-Feb-13 01:33N 67°17' E 014°22'0 0.0
2017-Feb-13 00:33N 67°17' E 014°22'0 0.0
2017-Feb-12 23:33N 67°17' E 014°22'0 0.0
2017-Feb-12 22:33N 67°17' E 014°22'0 0.0
2017-Feb-12 21:33N 67°17' E 014°22'3 2.9
2017-Feb-12 20:34N 67°15' E 014°16'  
Track history (hours):
 
Tides and Currents Weather Stations Pressure Air Temp Water Temp Dewpoint Dewpoint Depression Visibility Wind Speed Wind Dir Waves Ship Positions

Fjordprinsessen

Last reported at 2017-Feb-22 20:12 UTC. Time now 2017-Feb-22 22:07 UTC.
Position N 66°07' E 012°45'.

Length 30 m; draft 2.5 m.

Type: High speed craft. MMSI: 259604000.

Date/timePositionNaut miles runAvg speedWind from/ knotsBaromVisibWave heightAir tempDewpointWater temp
2017-Feb-22 20:12N 66°07' E 012°45'1420.8
2017-Feb-22 19:31N 66°21' E 012°52'1111.8
2017-Feb-22 18:33N 66°32' E 012°58'1311.2
2017-Feb-22 17:25N 66°43' E 013°14'1411.2
2017-Feb-22 16:11N 66°55' E 013°30'1523.7
2017-Feb-22 15:34N 67°06' E 013°56'1615.8
2017-Feb-22 14:33N 67°17' E 014°24'1 0.6
2017-Feb-22 13:33N 67°17' E 014°22'0 0.0
2017-Feb-22 12:33N 67°17' E 014°22'0 0.0
2017-Feb-22 11:33N 67°17' E 014°22'0 0.0
2017-Feb-22 10:33N 67°17' E 014°22'0 0.1
2017-Feb-22 09:33N 67°17' E 014°22'1111.1
2017-Feb-22 08:34N 67°27' E 014°35'10 0.7
2017-Feb-21 17:03N 67°37' E 014°42'1429.5
2017-Feb-21 16:34N 67°23' E 014°30'7 6.9
2017-Feb-21 15:33N 67°17' E 014°22'0 0.0
2017-Feb-21 14:33N 67°17' E 014°22'0 0.0
2017-Feb-21 13:33N 67°17' E 014°22'0 0.0
2017-Feb-21 12:33N 67°17' E 014°22'0 0.0
2017-Feb-21 11:34N 67°17' E 014°22'1312.9
2017-Feb-21 10:33N 67°08' E 013°58'3115.4
2017-Feb-21 08:34N 66°43' E 013°14'1212.2
2017-Feb-21 07:34N 66°32' E 012°58'2018.2
2017-Feb-21 06:26N 66°12' E 013°00'8 0.8
2017-Feb-20 20:25N 66°07' E 012°45'1416.9
2017-Feb-20 19:33N 66°21' E 012°55'1713.1
2017-Feb-20 18:16N 66°37' E 012°59'810.9
2017-Feb-20 17:34N 66°43' E 013°14'1413.0
2017-Feb-20 16:30N 66°55' E 013°30'2021.2
2017-Feb-20 15:33N 67°10' E 014°03'1010.2
2017-Feb-20 14:33N 67°17' E 014°22'0 0.0
2017-Feb-20 13:34N 67°17' E 014°22'0 0.0
2017-Feb-20 12:33N 67°17' E 014°22'0 0.0
2017-Feb-20 11:34N 67°17' E 014°22'0 0.0
2017-Feb-20 10:33N 67°17' E 014°22'0 0.0
2017-Feb-20 09:33N 67°17' E 014°22'0 0.0
2017-Feb-20 08:34N 67°17' E 014°22'1513.0
2017-Feb-20 07:24N 67°18' E 013°43'1315.1
2017-Feb-20 06:32N 67°23' E 014°15'2 2.4
2017-Feb-20 05:33N 67°24' E 014°09'1 0.1
2017-Feb-19 20:34N 67°25' E 014°06'10 9.9
2017-Feb-19 19:34N 67°17' E 014°22'1514.6
2017-Feb-19 18:33N 67°06' E 013°57'2315.4
2017-Feb-19 17:03N 66°48' E 013°20'2814.0
2017-Feb-19 15:03N 66°23' E 012°48'7 0.3
2017-Feb-18 19:32N 66°17' E 012°55'1514.9
2017-Feb-18 18:33N 66°32' E 012°58'2612.8
2017-Feb-18 16:29N 66°56' E 013°26'1919.9
2017-Feb-18 15:34N 67°07' E 014°03'1212.3
2017-Feb-18 14:34N 67°17' E 014°22'0 0.0
2017-Feb-18 13:33N 67°17' E 014°22'0 0.0
2017-Feb-18 12:34N 67°17' E 014°22'0 0.0
2017-Feb-18 11:34N 67°17' E 014°22'0 0.2
2017-Feb-18 10:34N 67°17' E 014°22'1312.9
2017-Feb-18 09:33N 67°24' E 013°54'1110.6
2017-Feb-18 08:34N 67°17' E 014°13'1111.3
2017-Feb-18 07:34N 67°07' E 013°57'1313.4
2017-Feb-18 06:33N 67°17' E 014°20'1 0.8
2017-Feb-18 05:32N 67°17' E 014°22'0 0.0
2017-Feb-18 04:32N 67°17' E 014°22'0 0.0
2017-Feb-18 03:32N 67°17' E 014°22'0 0.0
2017-Feb-18 02:32N 67°17' E 014°22'0 0.0
2017-Feb-18 01:32N 67°17' E 014°22'0 0.0
2017-Feb-18 00:31N 67°17' E 014°22'0 0.0
2017-Feb-17 23:31N 67°17' E 014°22'0 0.0
2017-Feb-17 22:31N 67°17' E 014°22'0 0.0
2017-Feb-17 21:31N 67°17' E 014°22'0 0.0
2017-Feb-17 20:31N 67°17' E 014°22'0 0.0
2017-Feb-17 19:31N 67°17' E 014°22'0 0.0
2017-Feb-17 18:31N 67°17' E 014°22'0 0.0
2017-Feb-17 17:31N 67°17' E 014°22'3 3.1
2017-Feb-17 16:34N 67°20' E 014°19'5 4.6
2017-Feb-17 15:33N 67°24' E 014°13'5 4.5
2017-Feb-17 14:33N 67°20' E 014°19'1413.7
2017-Feb-17 13:33N 67°18' E 013°43'1111.3
2017-Feb-17 12:33N 67°24' E 014°09'9 8.9
2017-Feb-17 11:33N 67°17' E 014°23'0 0.2
2017-Feb-17 10:33N 67°17' E 014°22'0 0.0
2017-Feb-17 09:33N 67°17' E 014°22'0 0.0
2017-Feb-17 08:33N 67°17' E 014°22'0 0.0
2017-Feb-17 07:33N 67°17' E 014°22'0 0.0
2017-Feb-17 06:33N 67°17' E 014°22'1212.4
2017-Feb-17 05:33N 67°08' E 014°02'1212.4
2017-Feb-17 04:33N 67°17' E 014°22'0 0.0
2017-Feb-17 03:32N 67°17' E 014°22'0 0.0
2017-Feb-17 02:32N 67°17' E 014°22'0 0.0
2017-Feb-17 01:32N 67°17' E 014°22'0 0.0
2017-Feb-17 00:32N 67°17' E 014°22'0 0.0
2017-Feb-16 23:32N 67°17' E 014°22'0 0.0
2017-Feb-16 22:32N 67°17' E 014°22'0 0.0
2017-Feb-16 21:32N 67°17' E 014°22'1111.4
2017-Feb-16 20:34N 67°12' E 013°56'5 5.3
2017-Feb-16 19:34N 67°08' E 014°02'1212.4
2017-Feb-16 18:34N 67°17' E 014°22'0 0.0
2017-Feb-16 17:33N 67°17' E 014°22'1 0.8
2017-Feb-16 16:34N 67°18' E 014°23'8 8.1
2017-Feb-16 15:33N 67°24' E 014°10'2 2.1
2017-Feb-16 14:34N 67°23' E 014°15'1010.2
2017-Feb-16 13:33N 67°20' E 013°50'9 9.5
2017-Feb-16 12:34N 67°24' E 014°12'8 8.1
2017-Feb-16 11:33N 67°17' E 014°22'7 6.8
2017-Feb-16 10:34N 67°14' E 014°06'6 5.7
2017-Feb-16 09:34N 67°09' E 014°02'1111.3
2017-Feb-16 08:33N 67°17' E 014°22'0 0.0
2017-Feb-16 07:33N 67°17' E 014°22'0 0.0
2017-Feb-16 06:33N 67°17' E 014°22'1212.4
2017-Feb-16 05:33N 67°07' E 014°02'1212.4
2017-Feb-16 04:33N 67°17' E 014°22'0 0.0
2017-Feb-16 03:32N 67°17' E 014°22'0 0.0
2017-Feb-16 02:32N 67°17' E 014°22'0 0.0
2017-Feb-16 01:32N 67°17' E 014°22'0 0.0
2017-Feb-16 00:32N 67°17' E 014°22'0 0.0
2017-Feb-15 23:32N 67°17' E 014°22'0 0.0
2017-Feb-15 22:32N 67°17' E 014°22'0 0.0
2017-Feb-15 21:32N 67°17' E 014°22'7 7.7
2017-Feb-15 20:34N 67°14' E 014°05'7 6.8
2017-Feb-15 19:34N 67°07' E 014°02'1212.4
2017-Feb-15 18:33N 67°17' E 014°22'0 0.0
2017-Feb-15 17:33N 67°17' E 014°22'1212.4
2017-Feb-15 16:33N 67°13' E 013°52'7 7.3
2017-Feb-15 15:33N 67°07' E 014°03'1212.3
2017-Feb-15 14:34N 67°17' E 014°22'0 0.0
2017-Feb-15 13:31N 67°17' E 014°22'0 0.0
2017-Feb-15 12:34N 67°17' E 014°22'0 0.0
2017-Feb-15 11:33N 67°17' E 014°22'0 0.0
2017-Feb-15 10:33N 67°17' E 014°22'0 0.0
2017-Feb-15 09:33N 67°17' E 014°22'0 0.0
2017-Feb-15 08:33N 67°17' E 014°22'0 0.0
2017-Feb-15 07:33N 67°17' E 014°22'0 0.0
2017-Feb-15 06:33N 67°17' E 014°22'1212.6
2017-Feb-15 05:33N 67°07' E 014°02'1212.5
2017-Feb-15 04:33N 67°17' E 014°22'0 0.0
2017-Feb-15 03:33N 67°17' E 014°22'0 0.0
2017-Feb-15 02:33N 67°17' E 014°22'0 0.0
2017-Feb-15 01:33N 67°17' E 014°22'0 0.0
2017-Feb-15 00:33N 67°17' E 014°22'0 0.0
2017-Feb-14 23:33N 67°17' E 014°22'0 0.0
2017-Feb-14 22:33N 67°17' E 014°22'0 0.0
2017-Feb-14 21:33N 67°17' E 014°22'0 0.0
2017-Feb-14 20:33N 67°17' E 014°22'0 0.0
2017-Feb-14 19:33N 67°17' E 014°22'0 0.0
2017-Feb-14 18:33N 67°17' E 014°22'1 0.6
2017-Feb-14 17:34N 67°17' E 014°24'1514.5
2017-Feb-14 16:31N 67°19' E 013°45'1111.6
2017-Feb-14 15:34N 67°24' E 014°10'9 8.7
2017-Feb-14 14:34N 67°17' E 014°23'0 0.4
2017-Feb-14 13:32N 67°17' E 014°22'0 0.0
2017-Feb-14 12:31N 67°17' E 014°22'0 0.0
2017-Feb-14 11:31N 67°17' E 014°22'0 0.0
2017-Feb-14 10:31N 67°17' E 014°22'0 0.0
2017-Feb-14 09:31N 67°17' E 014°22'2 2.5
2017-Feb-14 08:34N 67°19' E 014°20'1412.7
2017-Feb-14 07:28N 67°19' E 013°44'1314.0
2017-Feb-14 06:33N 67°23' E 014°15'1716.5
2017-Feb-14 05:33N 67°07' E 014°02'1212.4
2017-Feb-14 04:33N 67°17' E 014°22'0 0.0
2017-Feb-14 03:32N 67°17' E 014°22'0 0.0
2017-Feb-14 02:32N 67°17' E 014°22'0 0.0
2017-Feb-14 01:32N 67°17' E 014°22'0 0.0
2017-Feb-14 00:32N 67°17' E 014°22'0 0.0
2017-Feb-13 23:32N 67°17' E 014°22'0 0.0
2017-Feb-13 22:32N 67°17' E 014°22'0 0.0
2017-Feb-13 21:32N 67°17' E 014°22'0 0.0
2017-Feb-13 20:31N 67°17' E 014°22'0 0.0
2017-Feb-13 19:31N 67°17' E 014°22'0 0.0
2017-Feb-13 18:31N 67°17' E 014°22'0 0.0
2017-Feb-13 17:31N 67°17' E 014°22'1616.5
2017-Feb-13 16:33N 67°10' E 013°46'7 7.4
2017-Feb-13 15:34N 67°14' E 014°02'9 8.3
2017-Feb-13 14:31N 67°17' E 014°22'0 0.0
2017-Feb-13 13:33N 67°17' E 014°22'0 0.0
2017-Feb-13 12:32N 67°17' E 014°22'0 0.4
2017-Feb-13 11:33N 67°17' E 014°23'1515.0
2017-Feb-13 10:34N 67°11' E 013°49'6 5.8
2017-Feb-13 09:34N 67°11' E 014°03'9 9.2
2017-Feb-13 08:33N 67°17' E 014°22'0 0.0
2017-Feb-13 07:33N 67°17' E 014°22'0 0.0
2017-Feb-13 06:33N 67°17' E 014°22'1212.3
2017-Feb-13 05:34N 67°07' E 014°03'1212.2
2017-Feb-13 04:33N 67°17' E 014°22'0 0.3
2017-Feb-13 03:33N 67°17' E 014°22'0 0.0
2017-Feb-13 02:33N 67°17' E 014°22'0 0.0
2017-Feb-13 01:33N 67°17' E 014°22'0 0.0
2017-Feb-13 00:33N 67°17' E 014°22'0 0.0
2017-Feb-12 23:33N 67°17' E 014°22'0 0.0
2017-Feb-12 22:33N 67°17' E 014°22'0 0.0
2017-Feb-12 21:33N 67°17' E 014°22'3 2.9
2017-Feb-12 20:34N 67°15' E 014°16'  

Dump ship's entire track history